EWB weather

Public forecast

Using degrees Fahrenheit for public forecast. Weather courtesy of forecast.io.

Current aviation weather report (METAR) for New Bedford Regional Airport

Retrieved 2020/08/13 21:53 UTC (1 hour ago):

KEWB 132153Z 00000KT 10SM -RA FEW075 SCT100 BKN120 25/22 A3006 RMK AO2 RAE18B47 SLP180 P0000 T02500217

Closest aviation forecast (TAF) to New Bedford Regional Airport

Closest forecast is Cape Cod Coast Guard Air Station, 19.6 nm (36.2 km) E. Retrieved 2020/08/13 18:42 UTC (4 hours ago):

TAF KFMH 131741Z 1318/1418 01006KT P6SM VCSH BKN060 FM131900 03005KT P6SM VCSH BKN060 FM132300 07004KT P6SM OVC150 FM140300 00000KT P6SM OVC200 FM141200 04004KT P6SM SCT250